Pinson, Alabama
Current Conditions -  °F | °C
As of 11:53 PM on Tuesday 21 Oct 2014 (Local Time) from KBHM Reporting Station
Clear Clear  
Wind Chill: 53°   Ceiling: Unl
Heat Index: 53°   Visibility: 10mi
Dew Point: 50°   Wind: 0mph
Humidity: 89%   Direction: NA
Pressure: 30.08"   Gusts: NA
Location:  33.69°N, 86.68°W
Report Text: KBHM 220453Z 00000KT 10SM CLR 12/10 A3008 RMK AO2 SLP182 T01170100
Loading
Personal Weather Stations






























Interactive Weather Map
Tropical Storm Tracking
New forecast layout! Learn more

10-Day Weather Forecast

Advertisements
Track Severe Weather on mobile